Halle Kroellwitz, Germany

9:09 AM CEST on July 29, 2015 (GMT +0200)
Halle, Paulusviertel | | Change Station
CLOSE
Current Station
Personal Weather Station
Location: Halle (Saale), SAXONY-ANHALT
Elevation: 361 ft
Nearby Weather Stations

Elev 361 ft 51.50 °N, 11.97 °E | Updated 4 seconds ago

Mostly Cloudy
Mostly Cloudy
62.8 °F
Feels Like 62.8 °F
N
0.0
Wind Variable Wind from SSW
Gusts 0.0 mph

Today
High -- | Low -- °F
--% Chance of Precip.
Yesterday
High -- | Low -- °F
Precip. -- in
5:30 AM 9:05 PM
Waxing Gibbous, 94% visible
Pressure 29.77 in
Visibility 6.2 miles
Clouds Mostly Cloudy 4000 ft
Dew Point 47 °F
Humidity 57%
Rainfall 0.00 in
Snow Depth Not available.
UV 1.0 out of 12
Pollen Not available.
Air Quality Not available.
Flu Activity Not available.
METAR EDDP 290650Z 24011KT 9999 BKN040 15/09 Q1008 NOSIG

More Conditions Fewer Conditions

Pressure 29.77 in
Visibility 6.2 miles
Clouds Mostly Cloudy 4000 ft
Dew Point 47 °F
Humidity 57%
Rainfall 0.00 in
Snow Depth Not available.
UV 1.0 out of 12
Pollen Not available.
Air Quality Not available.
Flu Activity Not available.
METAR EDDP 290650Z 24011KT 9999 BKN040 15/09 Q1008 NOSIG

More Conditions Fewer Conditions

10-Day Weather Forecast

×

Almanac

Astronomy

Jul. 29, 2015 Rise Set
Actual Time
Civil Twilight
Nautical Twilight
Astronomical Twilight
Moon
Length of Visible Light
Length of Day
Tomorrow will be .
, % of the Moon is Illuminated

Today's Extremes

Country Highs Country Lows

Community

WunderPhotos

Upload Photos

1,842,061 photos uploaded!

WunderBlogs® & News

Nearby

Air Quality

  Air Quality AQ Index Pollutant
Not available.

Snow Depth

Station Depth Elevation

Earthquake Activity

City Distance Mag. Time & Date
Minimum magnitude displayed is 2.5.

Coastal Water Temperatures

Place Temperature

Stations

Nearby Weather Stations

Station Location Temp. Windchill Dew Point Humidity Wind Precip. Elev Updated Type